Time;durP1;ratioP1;P1;durP2;ratioP2;P2;SDS_P1;SDS_P2;PMS_P1;PMS_P2;Temp;Humidity;BMP_temperature;BMP_pressure;BME280_temperature;BME280_humidity;BME280_pressure;Samples;Min_cycle;Max_cycle;Signal;HPM_P1;HPM_P2
2023/05/28 00:01:03;;;;;;;4.13;1.63;;;;;;;26.74;37.58;100796.09;5009024;28;20052;-78
2023/05/28 00:03:32;;;;;;;1.90;1.20;;;;;;;26.61;36.40;100800.13;5010628;28;20061;-77
2023/05/28 00:06:03;;;;;;;3.90;1.45;;;;;;;26.54;37.62;100799.44;5009345;28;20052;-78
2023/05/28 00:08:39;;;;;;;2.03;1.47;;;;;;;26.46;37.45;100801.53;5008231;28;20057;-79
2023/05/28 00:11:09;;;;;;;3.90;1.38;;;;;;;26.40;39.08;100799.94;5006499;28;20050;-78
2023/05/28 00:13:40;;;;;;;4.93;1.52;;;;;;;26.40;37.48;100802.59;5006306;28;20046;-77
2023/05/28 00:16:08;;;;;;;4.95;1.10;;;;;;;26.42;38.59;100805.19;5005107;28;20069;-78
2023/05/28 00:18:37;;;;;;;6.93;1.50;;;;;;;26.39;36.81;100795.56;5005385;28;20046;-79
2023/05/28 00:21:05;;;;;;;3.50;1.42;;;;;;;26.37;36.96;100797.41;5004100;28;20053;-78
2023/05/28 00:23:34;;;;;;;4.10;1.20;;;;;;;26.38;36.72;100799.13;5007120;28;20421;-77
2023/05/28 00:26:08;;;;;;;2.10;1.38;;;;;;;26.28;36.50;100793.28;5006984;28;20050;-77
2023/05/28 00:28:38;;;;;;;1.98;1.30;;;;;;;26.30;38.03;100790.59;5005402;28;20547;-76
2023/05/28 00:31:07;;;;;;;1.65;1.33;;;;;;;26.29;36.83;100786.19;5013541;28;20046;-78
2023/05/28 00:33:36;;;;;;;1.42;1.15;;;;;;;26.27;36.53;100780.06;5005348;28;20057;-77
2023/05/28 00:36:05;;;;;;;2.22;1.30;;;;;;;26.25;37.75;100781.91;5002978;28;20054;-77
2023/05/28 00:38:34;;;;;;;2.30;1.30;;;;;;;26.25;37.41;100781.91;5008437;28;20716;-76
2023/05/28 00:41:02;;;;;;;3.38;1.30;;;;;;;26.26;37.27;100770.41;5006612;28;20050;-80
2023/05/28 00:43:31;;;;;;;1.95;1.30;;;;;;;26.45;37.32;100773.25;5007156;28;20101;-78
2023/05/28 00:46:03;;;;;;;4.03;1.38;;;;;;;26.60;37.26;100777.19;5007537;28;20535;-78
2023/05/28 00:48:40;;;;;;;4.85;1.33;;;;;;;26.54;37.14;100773.81;5005940;28;20162;-79
2023/05/28 00:51:09;;;;;;;3.13;1.40;;;;;;;26.43;40.59;100775.94;5004421;28;20065;-77
2023/05/28 00:53:37;;;;;;;4.05;1.40;;;;;;;26.42;38.26;100770.72;5007057;28;20664;-78
2023/05/28 00:56:07;;;;;;;6.40;1.30;;;;;;;26.27;39.91;100754.44;5007145;28;20070;-77
2023/05/28 00:58:39;;;;;;;4.00;1.23;;;;;;;26.40;38.45;100773.41;5004764;28;20124;-77
2023/05/28 01:01:10;;;;;;;2.42;1.17;;;;;;;26.39;37.92;100761.09;5005151;28;20050;-78
2023/05/28 01:03:39;;;;;;;2.25;1.20;;;;;;;26.38;36.66;100761.97;5008048;28;20096;-78
2023/05/28 01:06:11;;;;;;;3.58;1.50;;;;;;;26.40;38.73;100765.44;5007421;28;20046;-79
2023/05/28 01:08:40;;;;;;;4.10;1.20;;;;;;;26.38;36.49;100756.69;5006817;28;20440;-78
2023/05/28 01:11:13;;;;;;;3.03;1.20;;;;;;;26.28;36.92;100760.59;5004335;28;20631;-78
2023/05/28 01:13:43;;;;;;;2.28;1.10;;;;;;;26.20;39.95;100762.63;5007443;28;20408;-78
2023/05/28 01:16:14;;;;;;;1.90;1.02;;;;;;;26.07;37.07;100755.13;5005766;28;20050;-78
2023/05/28 01:18:44;;;;;;;3.58;1.27;;;;;;;25.95;36.81;100754.69;5003079;28;20116;-78
2023/05/28 01:21:14;;;;;;;4.65;2.17;;;;;;;25.84;37.40;100755.03;5006142;28;20061;-78
2023/05/28 01:23:46;;;;;;;3.92;1.20;;;;;;;25.74;37.82;100756.25;5007364;28;20463;-79
2023/05/28 01:26:15;;;;;;;;;;;;;;;25.66;38.41;100757.38;5007443;28;20050;-79
2023/05/28 01:28:46;;;;;;;2.63;1.35;;;;;;;25.63;37.71;100753.94;5002700;28;20368;-79
2023/05/28 01:31:15;;;;;;;2.00;1.20;;;;;;;25.64;41.41;100761.84;5006119;28;20431;-79
2023/05/28 01:33:45;;;;;;;3.60;1.23;;;;;;;25.60;41.32;100757.56;5005812;28;20535;-79
2023/05/28 01:36:21;;;;;;;3.92;1.17;;;;;;;25.49;38.64;100750.00;5006517;28;20042;-80
2023/05/28 01:38:58;;;;;;;3.30;1.23;;;;;;;25.41;38.51;100756.44;4999288;28;20053;-78
2023/05/28 01:41:28;;;;;;;3.85;1.48;;;;;;;25.32;40.34;100762.88;5005257;28;20054;-78
2023/05/28 01:43:57;;;;;;;4.90;1.35;;;;;;;25.22;38.09;100762.31;5005196;28;20057;-78
2023/05/28 01:46:30;;;;;;;2.95;1.17;;;;;;;25.15;40.45;100758.09;5005031;28;20060;-80
2023/05/28 01:48:59;;;;;;;3.22;1.20;;;;;;;25.08;39.28;100762.72;5006630;28;20056;-78
2023/05/28 01:51:28;;;;;;;4.93;1.38;;;;;;;24.99;39.05;100764.75;5003597;28;20554;-79
2023/05/28 01:53:58;;;;;;;2.85;1.15;;;;;;;24.95;38.75;100773.72;5007760;28;20050;-78
2023/05/28 01:56:27;;;;;;;3.33;1.40;;;;;;;24.86;40.34;100775.72;5003532;28;20050;-79
2023/05/28 01:58:56;;;;;;;5.07;1.65;;;;;;;24.79;39.28;100774.16;5005650;28;20487;-79
2023/05/28 02:01:31;;;;;;;4.45;1.48;;;;;;;24.75;38.72;100777.81;5002220;28;20519;-78
2023/05/28 02:03:59;;;;;;;5.15;1.48;;;;;;;24.72;37.90;100772.63;5005481;28;20941;-80
2023/05/28 02:06:36;;;;;;;5.45;1.30;;;;;;;24.69;38.29;100777.97;5006449;28;20080;-78
2023/05/28 02:09:06;;;;;;;3.95;1.23;;;;;;;24.60;39.91;100773.84;5008438;28;20311;-74
2023/05/28 02:11:35;;;;;;;3.25;1.30;;;;;;;24.60;40.13;100783.53;5006939;28;20115;-74
2023/05/28 02:14:03;;;;;;;4.45;1.63;;;;;;;24.64;40.19;100778.09;5007874;28;20041;-75
2023/05/28 02:16:35;;;;;;;4.65;1.52;;;;;;;24.65;40.52;100781.66;5006790;28;20042;-76
2023/05/28 02:19:03;;;;;;;5.30;1.43;;;;;;;24.62;38.79;100794.94;5003175;28;20052;-76
2023/05/28 02:21:32;;;;;;;3.45;1.55;;;;;;;24.60;38.86;100794.09;4999465;28;20042;-77
2023/05/28 02:24:00;;;;;;;3.00;1.20;;;;;;;24.62;39.89;100797.56;5003867;28;20101;-75
2023/05/28 02:26:36;;;;;;;4.60;1.83;;;;;;;24.62;39.61;100806.41;5000217;28;20046;-76
2023/05/28 02:29:05;;;;;;;5.70;1.23;;;;;;;24.61;38.91;100812.59;4999118;28;20065;-76
2023/05/28 02:31:34;;;;;;;6.00;1.50;;;;;;;24.50;38.77;100801.44;5001249;28;20062;-76
2023/05/28 02:34:02;;;;;;;6.28;2.45;;;;;;;24.48;38.30;100805.03;4998380;28;20048;-76
2023/05/28 02:36:32;;;;;;;7.50;1.55;;;;;;;24.43;38.55;100808.63;4999143;28;20049;-76
2023/05/28 02:39:03;;;;;;;6.40;1.50;;;;;;;24.36;38.59;100811.50;4997035;28;20058;-76
2023/05/28 02:41:34;;;;;;;4.50;1.58;;;;;;;24.25;38.81;100804.69;4999724;28;20446;-76
2023/05/28 02:44:02;;;;;;;3.88;1.42;;;;;;;24.21;38.12;100810.13;5005040;28;20092;-78
2023/05/28 02:46:31;;;;;;;5.68;1.40;;;;;;;24.11;36.52;100812.13;5011276;28;20052;-77
2023/05/28 02:49:02;;;;;;;4.95;1.45;;;;;;;24.01;36.99;100806.22;5002856;28;20499;-75
2023/05/28 02:51:30;;;;;;;8.23;1.60;;;;;;;23.89;35.46;100801.25;5001957;28;20073;-75
2023/05/28 02:53:59;;;;;;;5.70;1.70;;;;;;;23.66;35.81;100809.69;5000804;28;20053;-80
2023/05/28 02:56:28;;;;;;;6.18;1.63;;;;;;;23.55;37.03;100809.97;5003323;28;20128;-76
2023/05/28 02:58:58;;;;;;;5.90;1.77;;;;;;;23.43;35.21;100810.22;5000673;28;20533;-75
2023/05/28 03:01:27;;;;;;;6.25;1.42;;;;;;;23.32;36.81;100821.03;5006730;28;20092;-79
2023/05/28 03:03:56;;;;;;;8.82;2.53;;;;;;;23.21;36.94;100823.91;5002649;28;20140;-78
2023/05/28 03:06:25;;;;;;;6.88;1.67;;;;;;;23.06;36.86;100824.22;4999599;28;20058;-77
2023/05/28 03:08:53;;;;;;;5.07;1.60;;;;;;;22.95;37.12;100826.19;5001859;28;20054;-77
2023/05/28 03:11:22;;;;;;;4.50;1.40;;;;;;;22.84;38.82;100833.44;5000234;28;20054;-76
2023/05/28 03:13:53;;;;;;;5.18;1.58;;;;;;;22.72;38.41;100838.09;5015143;28;20133;-76
2023/05/28 03:16:24;;;;;;;5.13;1.63;;;;;;;22.56;37.60;100834.00;5003353;28;20053;-75
2023/05/28 03:18:53;;;;;;;5.55;2.05;;;;;;;22.45;37.85;100834.22;5004793;28;20129;-75
2023/05/28 03:21:21;;;;;;;8.57;3.85;;;;;;;22.30;40.86;100845.03;5001771;28;20480;-76
2023/05/28 03:23:52;;;;;;;6.50;2.17;;;;;;;22.15;38.52;100843.47;5002587;28;20050;-77
2023/05/28 03:26:21;;;;;;;7.40;1.80;;;;;;;22.02;39.68;100849.88;4996663;28;20894;-76
2023/05/28 03:28:50;;;;;;;6.70;1.80;;;;;;;21.90;38.59;100849.16;5002900;28;20073;-75
2023/05/28 03:31:18;;;;;;;7.40;1.80;;;;;;;21.78;37.69;100859.88;4996831;28;20509;-75
2023/05/28 03:33:53;;;;;;;5.50;1.60;;;;;;;21.70;37.96;100873.16;5013194;28;20124;-76
2023/05/28 03:36:22;;;;;;;8.18;1.95;;;;;;;21.64;37.37;100869.75;5000533;28;20504;-76
2023/05/28 03:38:50;;;;;;;7.45;1.40;;;;;;;21.60;37.72;100878.56;5005026;28;20110;-75
2023/05/28 03:41:19;;;;;;;5.50;1.42;;;;;;;21.53;37.82;100877.78;5003693;28;20503;-75
2023/05/28 03:43:49;;;;;;;5.95;1.92;;;;;;;21.39;37.41;100877.94;5001800;28;20054;-75
2023/05/28 03:46:18;;;;;;;4.97;1.58;;;;;;;21.31;39.62;100885.09;5006022;28;20045;-76
2023/05/28 03:48:48;;;;;;;5.50;1.38;;;;;;;21.19;38.07;100885.22;5004091;28;20057;-75
2023/05/28 03:51:17;;;;;;;6.68;2.08;;;;;;;21.09;40.31;100885.31;5001072;28;20058;-76
2023/05/28 03:53:45;;;;;;;5.93;1.63;;;;;;;20.96;41.13;100881.13;5004567;28;20057;-76
2023/05/28 03:56:14;;;;;;;5.55;1.85;;;;;;;20.86;41.29;100880.34;5005819;28;20057;-76
2023/05/28 03:58:42;;;;;;;5.53;1.52;;;;;;;20.79;39.89;100888.31;5008716;28;20141;-75
2023/05/28 04:01:12;;;;;;;4.03;1.30;;;;;;;20.71;40.23;100897.16;4997848;28;20622;-74
2023/05/28 04:03:40;;;;;;;2.58;1.27;;;;;;;20.65;40.41;100898.97;4998062;28;20038;-77
2023/05/28 04:06:10;;;;;;;4.78;1.13;;;;;;;20.62;41.94;100907.75;4999356;28;20771;-79
2023/05/28 04:08:40;;;;;;;2.63;1.45;;;;;;;20.56;42.29;100912.16;5003332;28;20092;-77
2023/05/28 04:11:08;;;;;;;6.07;1.58;;;;;;;20.48;40.40;100914.88;5000493;28;20141;-76
2023/05/28 04:13:37;;;;;;;5.57;1.38;;;;;;;20.41;40.90;100923.69;5003051;28;20566;-76
2023/05/28 04:16:07;;;;;;;7.22;1.60;;;;;;;20.38;40.72;100923.72;5008269;28;20386;-77
2023/05/28 04:18:36;;;;;;;4.38;1.30;;;;;;;20.32;41.67;100932.53;5006112;28;20049;-79
2023/05/28 04:21:06;;;;;;;10.65;1.17;;;;;;;20.26;41.16;100932.56;5006753;28;20054;-78
2023/05/28 04:23:36;;;;;;;3.40;1.33;;;;;;;20.18;40.83;100934.38;5002245;28;20055;-77
2023/05/28 04:26:06;;;;;;;6.00;1.55;;;;;;;20.11;40.58;100938.78;5006042;28;20108;-78
2023/05/28 04:28:34;;;;;;;5.40;1.52;;;;;;;20.04;42.65;100951.13;5006173;28;20054;-77
2023/05/28 04:31:04;;;;;;;6.55;2.13;;;;;;;19.95;41.21;100947.66;5001307;28;20076;-74
2023/05/28 04:33:36;;;;;;;3.33;1.50;;;;;;;19.86;40.87;100953.88;5006220;28;20156;-77
2023/05/28 04:36:07;;;;;;;5.63;1.55;;;;;;;19.76;40.61;100949.53;5006120;28;20220;-77
2023/05/28 04:38:37;;;;;;;3.20;1.33;;;;;;;19.61;39.67;100953.06;5006168;28;20056;-77
2023/05/28 04:41:08;;;;;;;5.45;1.13;;;;;;;19.52;40.06;100958.38;5004285;28;20054;-76
2023/05/28 04:43:37;;;;;;;4.38;1.33;;;;;;;19.44;40.60;100961.00;5005871;28;20054;-77
2023/05/28 04:46:08;;;;;;;5.50;1.23;;;;;;;19.36;41.02;100963.66;5006333;28;20049;-77
2023/05/28 04:48:37;;;;;;;4.70;1.40;;;;;;;19.28;40.80;100960.19;5005860;28;20057;-75
2023/05/28 04:51:06;;;;;;;4.30;1.40;;;;;;;19.23;40.88;100967.19;5012705;28;20065;-75
2023/05/28 04:53:39;;;;;;;4.57;1.90;;;;;;;19.19;41.06;100981.19;5008978;28;20056;-77
2023/05/28 04:56:08;;;;;;;7.93;1.30;;;;;;;19.10;41.15;100973.34;5007850;28;20049;-76
2023/05/28 04:58:37;;;;;;;4.88;1.20;;;;;;;19.03;41.26;100980.34;5007658;28;20050;-74
2023/05/28 05:01:08;;;;;;;5.43;1.02;;;;;;;18.97;42.36;100973.38;5001565;28;20049;-75
2023/05/28 05:03:39;;;;;;;7.93;1.27;;;;;;;18.89;42.51;100975.13;5014008;28;20469;-77
2023/05/28 05:06:08;;;;;;;4.18;1.15;;;;;;;18.82;42.78;100978.63;5007385;28;20050;-76
2023/05/28 05:08:38;;;;;;;4.40;1.50;;;;;;;18.72;43.76;100972.50;5008261;28;20460;-76
2023/05/28 05:11:08;;;;;;;5.70;1.52;;;;;;;18.60;44.06;100976.00;5005497;28;20061;-76
2023/05/28 05:13:36;;;;;;;6.30;1.55;;;;;;;18.50;44.25;100984.72;5008096;28;20050;-75
2023/05/28 05:16:05;;;;;;;5.40;1.30;;;;;;;18.40;44.31;100999.56;5007679;28;20152;-76
2023/05/28 05:18:34;;;;;;;6.05;1.67;;;;;;;18.30;44.05;100992.56;5004868;28;20424;-75
2023/05/28 05:21:02;;;;;;;5.28;1.20;;;;;;;18.24;44.77;100989.94;5007688;28;20057;-76
2023/05/28 05:23:31;;;;;;;10.05;1.60;;;;;;;18.20;45.36;100989.03;4999632;28;20059;-77
2023/05/28 05:26:01;;;;;;;7.03;1.48;;;;;;;18.10;46.19;100987.28;5005390;28;20491;-75
2023/05/28 05:28:30;;;;;;;7.72;1.70;;;;;;;18.01;46.06;100984.66;5005451;28;20061;-77
2023/05/28 05:30:58;;;;;;;6.25;1.50;;;;;;;17.92;45.83;100979.41;4999674;28;20135;-76
2023/05/28 05:33:27;;;;;;;11.98;1.63;;;;;;;17.86;46.89;100982.84;4997445;28;21295;-76
2023/05/28 05:35:56;;;;;;;3.67;1.23;;;;;;;17.81;47.35;100981.97;5001900;28;20058;-76
2023/05/28 05:38:29;;;;;;;3.42;1.30;;;;;;;17.74;47.00;100980.16;5003619;28;20554;-77
2023/05/28 05:40:57;;;;;;;5.68;1.08;;;;;;;17.69;46.93;100982.78;5005899;28;20057;-77
2023/05/28 05:43:28;;;;;;;5.85;1.95;;;;;;;17.60;47.53;100985.34;5007385;28;20053;-77
2023/05/28 05:45:56;;;;;;;5.03;1.05;;;;;;;17.48;46.60;100985.31;5004635;28;20917;-78
2023/05/28 05:48:28;;;;;;;6.22;1.83;;;;;;;17.42;47.53;100987.88;5005829;28;20049;-77
2023/05/28 05:50:58;;;;;;;10.77;1.77;;;;;;;17.37;47.97;100999.19;5003513;28;20124;-77
2023/05/28 05:53:26;;;;;;;7.95;1.73;;;;;;;17.34;47.82;101009.66;5005660;28;20403;-76
2023/05/28 05:55:55;;;;;;;6.43;1.40;;;;;;;17.27;47.73;101009.56;4993291;28;20042;-75
2023/05/28 05:58:23;;;;;;;7.30;2.00;;;;;;;17.21;48.34;101015.66;5004142;28;20046;-78
2023/05/28 06:00:54;;;;;;;3.72;1.50;;;;;;;17.15;48.41;101015.59;5005403;28;21170;-74
2023/05/28 06:03:22;;;;;;;6.22;1.73;;;;;;;17.10;48.84;101017.31;5004885;28;20065;-74
2023/05/28 06:05:58;;;;;;;3.05;1.40;;;;;;;17.05;48.95;101019.03;5006568;28;20472;-73
2023/05/28 06:08:27;;;;;;;5.00;1.70;;;;;;;16.98;48.79;101022.47;5006011;28;20045;-75
2023/05/28 06:10:58;;;;;;;6.45;1.33;;;;;;;16.90;47.86;101028.50;5002706;28;20054;-74
2023/05/28 06:13:27;;;;;;;9.13;1.60;;;;;;;16.81;49.08;101036.25;5003930;28;20412;-74
2023/05/28 06:15:57;;;;;;;6.65;1.50;;;;;;;16.73;49.38;101043.16;5004653;28;20061;-73
2023/05/28 06:18:25;;;;;;;2.65;1.23;;;;;;;16.66;49.28;101042.22;5006501;28;20657;-77
2023/05/28 06:20:55;;;;;;;4.13;1.38;;;;;;;16.61;49.01;101048.28;5007677;28;20046;-76
2023/05/28 06:23:23;;;;;;;6.20;1.38;;;;;;;16.52;49.21;101044.69;5004380;28;20064;-74
2023/05/28 06:25:52;;;;;;;8.35;1.80;;;;;;;16.46;49.51;101047.22;5002341;28;20551;-74
2023/05/28 06:28:21;;;;;;;5.72;1.92;;;;;;;16.39;49.33;101053.25;5002587;28;20046;-75
2023/05/28 06:30:49;;;;;;;8.07;2.00;;;;;;;16.31;49.40;101061.03;5006677;28;20614;-75
2023/05/28 06:33:19;;;;;;;3.95;1.40;;;;;;;16.21;49.26;101066.13;5002891;28;20050;-75
2023/05/28 06:35:48;;;;;;;6.35;1.38;;;;;;;16.14;49.75;101073.00;5006308;28;20143;-74
2023/05/28 06:38:17;;;;;;;6.60;1.65;;;;;;;16.07;50.32;101068.56;5001086;28;20042;-74
2023/05/28 06:40:45;;;;;;;4.30;1.27;;;;;;;16.00;49.46;101070.22;5006025;28;20080;-74
2023/05/28 06:43:14;;;;;;;6.47;1.85;;;;;;;15.95;50.26;101074.53;5006980;28;20109;-76
2023/05/28 06:45:47;;;;;;;4.80;1.40;;;;;;;15.89;49.72;101071.81;4994460;28;20050;-76
2023/05/28 06:48:16;;;;;;;4.85;1.15;;;;;;;15.85;49.19;101081.38;5002038;28;20065;-75
2023/05/28 06:50:46;;;;;;;4.35;1.27;;;;;;;15.81;49.81;101079.56;5001925;28;20841;-74
2023/05/28 06:53:15;;;;;;;5.20;1.02;;;;;;;15.77;50.33;101082.13;5005728;28;20129;-74
2023/05/28 06:55:43;;;;;;;3.42;1.08;;;;;;;15.69;49.12;101074.13;5000986;28;20050;-74
2023/05/28 06:58:12;;;;;;;11.65;1.55;;;;;;;15.61;50.23;101076.63;5005871;28;20069;-74
2023/05/28 07:00:40;;;;;;;3.92;1.30;;;;;;;15.57;50.08;101072.22;5001069;28;20733;-74
2023/05/28 07:03:09;;;;;;;4.28;1.38;;;;;;;15.53;52.08;101072.16;4998305;28;20049;-75
2023/05/28 07:05:38;;;;;;;6.65;1.42;;;;;;;15.46;51.56;101076.41;4990274;28;20493;-75
2023/05/28 07:08:12;;;;;;;6.90;1.95;;;;;;;15.41;51.30;101078.09;5001142;28;20049;-74
2023/05/28 07:10:41;;;;;;;3.03;1.17;;;;;;;15.37;50.76;101082.41;5004999;28;20057;-74
2023/05/28 07:13:09;;;;;;;5.25;1.33;;;;;;;15.34;51.64;101073.63;5002558;28;20100;-75
2023/05/28 07:15:38;;;;;;;4.88;1.35;;;;;;;15.28;50.41;101075.31;4999244;28;20061;-75
2023/05/28 07:18:09;;;;;;;6.80;1.65;;;;;;;15.23;51.62;101069.16;5004155;28;20511;-75
2023/05/28 07:20:38;;;;;;;9.80;1.58;;;;;;;15.17;52.03;101083.81;5006127;28;20726;-78
2023/05/28 07:23:10;;;;;;;3.67;1.63;;;;;;;15.08;52.29;101074.13;5004978;28;20073;-76
2023/05/28 07:25:38;;;;;;;12.05;1.63;;;;;;;15.03;52.67;101075.78;5001262;28;20171;-79
2023/05/28 07:28:07;;;;;;;1.80;0.80;;;;;;;14.96;52.96;101080.00;5001897;28;20097;-76
2023/05/28 07:30:35;;;;;;;3.03;1.38;;;;;;;14.92;52.15;101078.19;5004669;28;20053;-76
2023/05/28 07:33:04;;;;;;;5.45;1.05;;;;;;;14.88;53.39;101084.19;5005602;28;20057;-75
2023/05/28 07:35:33;;;;;;;11.98;1.80;;;;;;;14.83;52.85;101084.13;5006378;28;20555;-76
2023/05/28 07:38:02;;;;;;;6.72;1.00;;;;;;;14.79;53.60;101091.84;5001350;28;20050;-77
2023/05/28 07:40:32;;;;;;;5.03;1.05;;;;;;;14.73;53.58;101081.31;5003472;28;20056;-76
2023/05/28 07:43:04;;;;;;;3.58;1.15;;;;;;;14.67;53.70;101076.88;5000377;28;20049;-75
2023/05/28 07:45:32;;;;;;;3.17;0.90;;;;;;;14.66;53.77;101080.34;5008893;28;20100;-75
2023/05/28 07:48:01;;;;;;;4.38;1.48;;;;;;;14.64;53.94;101076.84;5003086;28;20045;-76
2023/05/28 07:50:29;;;;;;;3.30;1.13;;;;;;;14.62;54.76;101084.63;5008036;28;20045;-75
2023/05/28 07:52:58;;;;;;;7.70;1.48;;;;;;;14.56;54.32;101091.44;5003056;28;20052;-76
2023/05/28 07:55:26;;;;;;;6.60;1.20;;;;;;;14.49;54.50;101089.53;4991104;28;20038;-75
2023/05/28 07:57:58;;;;;;;5.43;1.42;;;;;;;14.39;54.83;101086.75;5008539;28;20053;-75
2023/05/28 08:00:27;;;;;;;5.68;1.10;;;;;;;14.34;55.64;101093.63;5007356;28;20048;-77
2023/05/28 08:02:56;;;;;;;3.65;1.30;;;;;;;14.33;55.21;101090.97;5008619;28;20054;-74
2023/05/28 08:05:27;;;;;;;4.28;1.27;;;;;;;14.28;55.50;101082.19;5008311;28;20046;-74
2023/05/28 08:07:56;;;;;;;6.18;1.25;;;;;;;14.22;55.59;101088.16;5008471;28;20073;-74
2023/05/28 08:10:25;;;;;;;7.95;1.10;;;;;;;14.18;56.09;101086.34;5003562;28;20058;-74
2023/05/28 08:12:53;;;;;;;4.72;1.55;;;;;;;14.16;56.27;101077.63;5005485;28;20056;-75
2023/05/28 08:15:24;;;;;;;5.03;1.45;;;;;;;14.15;56.05;101078.47;5003595;28;20046;-75
2023/05/28 08:17:52;;;;;;;11.80;1.60;;;;;;;14.12;56.50;101084.50;5007932;28;20562;-74
2023/05/28 08:20:22;;;;;;;6.22;1.63;;;;;;;14.12;55.62;101086.22;5005840;28;20558;-75
2023/05/28 08:22:51;;;;;;;4.50;1.38;;;;;;;14.08;56.28;101084.41;5007986;28;20050;-75
2023/05/28 08:25:20;;;;;;;7.55;1.20;;;;;;;14.01;57.04;101081.66;5009932;28;20060;-75
2023/05/28 08:27:50;;;;;;;5.68;1.25;;;;;;;13.98;57.12;101083.34;5008212;28;20094;-75
2023/05/28 08:30:19;;;;;;;3.33;0.93;;;;;;;13.91;57.04;101087.53;5010042;28;20045;-75
2023/05/28 08:32:49;;;;;;;4.68;1.20;;;;;;;13.79;58.17;101082.09;5004730;28;20484;-76
2023/05/28 08:35:18;;;;;;;6.15;1.52;;;;;;;13.66;57.51;101085.25;5007607;28;20054;-75
2023/05/28 08:37:49;;;;;;;7.47;1.60;;;;;;;13.59;58.33;101090.31;5007675;28;20050;-75
2023/05/28 08:40:25;;;;;;;4.05;1.80;;;;;;;13.59;58.63;101085.09;5007875;28;20046;-75
2023/05/28 08:42:54;;;;;;;4.95;1.13;;;;;;;13.57;58.82;101081.59;5005514;28;20574;-75
2023/05/28 08:45:22;;;;;;;6.93;1.52;;;;;;;13.49;58.64;101080.56;5009136;28;20675;-75
2023/05/28 08:47:59;;;;;;;11.77;1.25;;;;;;;13.51;58.70;101099.63;5008382;28;20669;-75
2023/05/28 08:50:30;;;;;;;6.88;1.40;;;;;;;13.52;58.25;101095.34;5009061;28;20050;-74
2023/05/28 08:53:03;;;;;;;5.10;1.65;;;;;;;13.48;59.17;101094.38;5008267;28;20144;-74
2023/05/28 08:55:32;;;;;;;7.72;1.95;;;;;;;13.43;59.47;101092.53;5007971;28;20100;-76
2023/05/28 08:58:01;;;;;;;5.50;1.35;;;;;;;13.39;60.15;101091.56;5007691;28;20068;-75
2023/05/28 09:00:29;;;;;;;7.53;1.70;;;;;;;13.36;59.92;101097.56;5004217;28;20515;-76
2023/05/28 09:03:00;;;;;;;6.45;1.58;;;;;;;13.28;60.34;101091.31;5004520;28;20491;-76
2023/05/28 09:05:28;;;;;;;5.57;1.20;;;;;;;13.20;60.21;101093.69;5007804;28;20172;-75
2023/05/28 09:07:57;;;;;;;6.90;1.52;;;;;;;13.18;60.79;101097.09;5006734;28;20159;-75
2023/05/28 09:10:25;;;;;;;2.95;1.20;;;;;;;13.16;61.10;101103.97;5005830;28;20057;-75
2023/05/28 09:13:01;;;;;;;8.05;2.13;;;;;;;13.12;61.42;101104.75;5005083;28;20050;-75
2023/05/28 09:15:31;;;;;;;3.00;1.55;;;;;;;13.09;61.67;101108.16;5006241;28;20046;-74
2023/05/28 09:18:04;;;;;;;5.57;1.55;;;;;;;13.08;61.96;101109.00;5003540;28;20065;-75
2023/05/28 09:20:32;;;;;;;5.95;1.60;;;;;;;13.01;62.52;101099.31;5005512;28;20069;-75
2023/05/28 09:23:02;;;;;;;7.80;1.70;;;;;;;12.92;62.41;101105.13;5003954;28;20048;-76
2023/05/28 09:25:32;;;;;;;7.57;2.70;;;;;;;12.86;61.91;101104.09;5009152;28;20050;-75
2023/05/28 09:28:01;;;;;;;4.38;1.77;;;;;;;12.86;62.54;101104.09;5002959;28;20046;-74
2023/05/28 09:30:37;;;;;;;7.47;1.63;;;;;;;12.86;63.01;101104.97;5010094;28;20058;-74
2023/05/28 09:33:08;;;;;;;6.03;1.80;;;;;;;12.87;62.78;101105.84;5004655;28;20145;-74
2023/05/28 09:35:37;;;;;;;4.63;1.45;;;;;;;12.86;62.45;101110.16;5007000;28;20546;-74
2023/05/28 09:38:09;;;;;;;10.02;1.90;;;;;;;12.82;62.50;101110.91;5005428;28;20054;-74
2023/05/28 09:40:41;;;;;;;8.85;2.40;;;;;;;12.81;62.90;101110.91;5002236;28;20053;-74
2023/05/28 09:43:10;;;;;;;4.85;1.92;;;;;;;12.75;63.33;101115.06;5005496;28;20648;-73
2023/05/28 09:45:39;;;;;;;6.13;1.70;;;;;;;12.71;63.06;101110.66;5009872;28;20060;-74
2023/05/28 09:48:09;;;;;;;5.85;1.60;;;;;;;12.69;63.16;101120.13;5005405;28;20058;-74
2023/05/28 09:50:38;;;;;;;4.93;1.60;;;;;;;12.69;63.62;101122.72;5003081;28;20050;-74
2023/05/28 09:53:09;;;;;;;7.65;1.75;;;;;;;12.66;64.04;101117.41;5005227;28;20057;-74
2023/05/28 09:55:39;;;;;;;6.60;1.75;;;;;;;12.62;63.74;101115.59;5006004;28;20129;-74
2023/05/28 09:58:11;;;;;;;5.57;1.60;;;;;;;12.59;64.81;101120.69;5002781;28;20062;-74
2023/05/28 10:00:46;;;;;;;6.97;1.88;;;;;;;12.56;64.49;101123.22;5004226;28;20119;-74
2023/05/28 10:03:23;;;;;;;7.25;1.98;;;;;;;12.50;65.35;101125.63;5003372;28;20209;-74
2023/05/28 10:05:59;;;;;;;6.28;1.98;;;;;;;12.45;65.47;101128.09;5003429;28;20046;-74
2023/05/28 10:08:28;;;;;;;9.00;2.28;;;;;;;12.42;65.69;101125.44;5006919;28;20057;-75
2023/05/28 10:10:57;;;;;;;5.35;1.38;;;;;;;12.40;64.93;101123.63;5007766;28;20592;-73
2023/05/28 10:13:27;;;;;;;6.30;1.48;;;;;;;12.39;65.83;101124.47;5006211;28;20061;-75
2023/05/28 10:15:59;;;;;;;9.90;1.45;;;;;;;12.34;66.79;101125.19;5005548;28;20052;-74
2023/05/28 10:18:30;;;;;;;6.43;1.80;;;;;;;12.31;66.36;101124.25;5004792;28;20404;-74
2023/05/28 10:21:01;;;;;;;5.60;1.50;;;;;;;12.28;67.29;101130.25;5006755;28;20041;-74
2023/05/28 10:23:30;;;;;;;3.38;1.13;;;;;;;12.17;67.29;101126.44;5004955;28;20121;-74
2023/05/28 10:26:02;;;;;;;7.38;0.98;;;;;;;12.20;67.15;101136.91;5006520;28;20108;-75
2023/05/28 10:28:32;;;;;;;2.40;1.35;;;;;;;12.20;67.03;101136.91;5005263;28;20542;-74
2023/05/28 10:31:05;;;;;;;4.05;1.60;;;;;;;12.19;66.72;101129.97;5003208;28;20054;-75
2023/05/28 10:33:45;;;;;;;7.55;1.55;;;;;;;12.14;67.43;101116.88;4999441;28;20401;-74
2023/05/28 10:36:15;;;;;;;3.50;1.30;;;;;;;12.20;67.67;101126.53;5002266;28;20397;-74
2023/05/28 10:38:45;;;;;;;3.47;1.00;;;;;;;12.20;67.05;101125.66;5003426;28;20116;-74
2023/05/28 10:41:21;;;;;;;8.32;1.75;;;;;;;12.15;67.30;101134.19;5005076;28;20054;-73
2023/05/28 10:43:50;;;;;;;5.50;1.30;;;;;;;12.10;67.98;101135.78;5004331;28;20058;-74
2023/05/28 10:46:20;;;;;;;6.00;1.30;;;;;;;12.04;67.93;101134.72;5003638;28;20598;-73
2023/05/28 10:49:16;;;;;;;9.55;1.85;;;;;;;11.99;68.59;101129.38;5004964;28;20053;-73
2023/05/28 10:51:53;;;;;;;8.70;1.90;;;;;;;11.98;68.88;101134.50;5004275;28;20142;-73
2023/05/28 10:54:41;;;;;;;6.47;1.52;;;;;;;11.97;68.97;101137.97;5004361;28;20145;-73
2023/05/28 10:57:14;;;;;;;5.82;1.27;;;;;;;11.95;69.40;101131.00;5006913;28;20046;-73
2023/05/28 10:59:49;;;;;;;4.38;1.35;;;;;;;11.92;70.60;101135.22;5005537;28;20134;-73
2023/05/28 11:02:25;;;;;;;2.90;1.25;;;;;;;11.88;69.97;101135.97;5003721;28;20746;-74
2023/05/28 11:05:04;;;;;;;9.55;1.40;;;;;;;11.82;70.71;101138.31;5003861;28;20050;-74
2023/05/28 11:07:35;;;;;;;5.35;1.60;;;;;;;11.72;71.91;101137.16;4999085;28;20046;-74
2023/05/28 11:10:04;;;;;;;8.77;1.55;;;;;;;11.67;72.02;101138.75;5005235;28;20046;-75
2023/05/28 11:12:38;;;;;;;9.65;1.73;;;;;;;11.64;72.91;101136.06;5005878;28;20061;-74
2023/05/28 11:15:08;;;;;;;5.28;1.50;;;;;;;11.60;73.45;101131.63;5003076;28;20661;-74
2023/05/28 11:17:40;;;;;;;3.83;1.83;;;;;;;11.57;72.57;101136.69;4999829;28;20046;-74
2023/05/28 11:20:19;;;;;;;3.40;1.33;;;;;;;11.56;72.55;101145.31;5002507;28;20050;-75
2023/05/28 11:22:48;;;;;;;4.25;1.00;;;;;;;11.55;71.33;101138.38;5004097;28;20136;-74
2023/05/28 11:25:16;;;;;;;6.25;1.88;;;;;;;11.57;71.83;101139.28;5013754;28;20041;-74
2023/05/28 11:27:45;;;;;;;4.03;1.75;;;;;;;11.56;71.82;101142.72;5009079;28;20065;-74
2023/05/28 11:30:15;;;;;;;3.17;1.00;;;;;;;11.52;71.51;101145.22;5008703;28;20058;-74
2023/05/28 11:32:45;;;;;;;2.65;0.80;;;;;;;11.50;70.93;101146.88;5008954;28;20084;-74
2023/05/28 11:35:17;;;;;;;3.00;1.23;;;;;;;11.49;71.92;101150.28;5003792;28;20049;-73
2023/05/28 11:37:46;;;;;;;12.60;1.40;;;;;;;11.44;71.41;101143.22;5006501;28;20061;-75